Rhyl, United Kingdom

8:37 AM GMT on October 26, 2014 (GMT +0000)
Rhuddlan | Change Station
CLOSE
Current Station
Personal Weather Station
Location: Rhyl, DENBIGHSHIRE
Elevation: 58 ft
Nearby Weather Stations

Elev 58 ft 53.29 °N, 3.49 °W | Updated 10 minutes ago

Partly Cloudy
Partly Cloudy
57.1 °F
Feels Like 57.1 °F
N
0.0
Wind Variable Wind from West
Gusts 0.0 mph

Today
High -- | Low -- °F
--% Chance of Precip.
Yesterday
High -- | Low -- °F
Precip. -- in
7:00 AM 4:54 PM
Waxing Crescent, 6% visible
Pressure 29.98 in
Visibility 6.2 miles
Clouds Few 1800 ft
Dew Point 47 °F
Humidity 70%
Rainfall 0.00 in
Snow Depth Not available.
UV 0.0 out of 12
Pollen Not available.
Air Quality Not available.
Flu Activity Not available.
METAR EGNR 260820Z 23020KT 9999 FEW018 14/09 Q1015

More Conditions Fewer Conditions

Pressure 29.98 in
Visibility 6.2 miles
Clouds Few 1800 ft
Dew Point 47 °F
Humidity 70%
Rainfall 0.00 in
Snow Depth Not available.
UV 0.0 out of 12
Pollen Not available.
Air Quality Not available.
Flu Activity Not available.
METAR EGNR 260820Z 23020KT 9999 FEW018 14/09 Q1015

More Conditions Fewer Conditions

10-Day Weather Forecast

Almanac

Astronomy

Oct. 26, 2014 Rise Set
Actual Time 7:00 AM GMT 4:54 PM GMT
Civil Twilight 6:24 AM GMT 5:30 PM GMT
Nautical Twilight 5:43 AM GMT 6:10 PM GMT
Astronomical Twilight 5:03 AM GMT 6:51 PM GMT
Moon 9:39 AM GMT 6:38 PM GMT
Length of Visible Light 11h 05m
Length of Day
9h 53m
Tomorrow will be 3m 57s shorter.
Waxing Crescent, 6% of the Moon is Illuminated
Today
Waxing Crescent
Oct 30
First Quarter
Nov 6
Full
Nov 14
Last Quarter
Nov 22
New

Yesterday's Extremes

Country Highs Country Lows

Community

WunderPhotos

Upload Photos

1,765,127 photos uploaded!

Nearby

Snow Depth

Not available.

Earthquake Activity

City Distance Mag. Time & Date
No recent earthquake activity has been reported nearby.
Minimum magnitude displayed is 2.5.

Coastal Water Temperatures

Place Temperature
No Stations Reporting

Nearby Weather Stations